Abraham, West Virginia
Current Conditions -  °F | °C
As of 7:51 PM on Saturday 22 Nov 2014 (Local Time) from KBKW Reporting Station
Clear Clear  
Wind Chill: 40°   Ceiling: Unl
Heat Index: 45°   Visibility: 10mi
Dew Point: 17°   Wind: 9mph
Humidity: 33%   Direction: 150°SSE
Pressure: 30.22"   Gusts: NA
Location:  37.6906°N, 81.1704°W
Report Text: KBKW 230051Z AUTO 15008KT 10SM CLR 07/M08 A3022 RMK AO2 SLP252 T00721083
Loading
Personal Weather Stations






























Interactive Weather Map New forecast layout! Learn more

10-Day Weather Forecast

Advertisements
Track Severe Weather on mobile